createdAt,value
2023-07-19T00:02:24.840Z,6.10
2023-07-19T00:04:51.640Z,6.32
2023-07-19T00:07:18.527Z,5.40
2023-07-19T00:09:45.284Z,5.97
2023-07-19T00:12:12.719Z,5.47
2023-07-19T00:14:39.490Z,6.50
2023-07-19T00:17:06.389Z,5.43
2023-07-19T00:19:33.131Z,5.38
2023-07-19T00:21:59.888Z,5.63
2023-07-19T00:24:26.790Z,5.43
2023-07-19T00:26:53.557Z,5.18
2023-07-19T00:29:20.288Z,5.72
2023-07-19T00:31:47.088Z,5.28
2023-07-19T00:34:13.885Z,4.78
2023-07-19T00:36:40.825Z,4.70
2023-07-19T00:39:07.551Z,4.90
2023-07-19T00:41:34.440Z,4.65
2023-07-19T00:44:01.235Z,5.07
2023-07-19T00:46:29.057Z,4.72
2023-07-19T00:48:56.977Z,5.35
2023-07-19T00:51:24.465Z,4.78
2023-07-19T00:53:51.587Z,5.43
2023-07-19T00:56:18.857Z,5.40
2023-07-19T00:58:45.812Z,5.30
2023-07-19T01:01:13.360Z,5.32
2023-07-19T01:03:40.127Z,5.32
2023-07-19T01:06:07.057Z,5.53
2023-07-19T01:08:34.427Z,5.47
2023-07-19T01:11:01.462Z,5.15
2023-07-19T01:13:28.674Z,5.15
2023-07-19T01:15:55.570Z,5.30
2023-07-19T01:18:22.361Z,5.55
2023-07-19T01:20:49.369Z,5.10
2023-07-19T01:23:16.166Z,5.45
2023-07-19T01:25:44.247Z,4.70
2023-07-19T01:28:11.061Z,4.68
2023-07-19T01:30:37.850Z,5.00
2023-07-19T01:33:05.237Z,5.60
2023-07-19T01:35:33.652Z,5.60
2023-07-19T01:38:00.615Z,5.28
2023-07-19T01:40:27.427Z,5.68
2023-07-19T01:42:54.292Z,5.78
2023-07-19T01:45:21.117Z,5.88
2023-07-19T01:47:47.956Z,5.47
2023-07-19T01:50:14.768Z,5.85
2023-07-19T01:52:42.018Z,6.03
2023-07-19T01:55:09.020Z,6.25
2023-07-19T01:57:35.844Z,5.70
2023-07-19T02:00:03.525Z,6.10
2023-07-19T02:02:30.409Z,6.43
2023-07-19T02:04:57.382Z,6.53
2023-07-19T02:07:24.243Z,5.93
2023-07-19T02:09:51.462Z,5.43
2023-07-19T02:12:18.571Z,6.07
2023-07-19T02:14:45.516Z,6.47
2023-07-19T02:17:12.274Z,5.78
2023-07-19T02:19:39.132Z,5.82
2023-07-19T02:22:06.209Z,5.93
2023-07-19T02:24:32.987Z,5.70
2023-07-19T02:27:00.248Z,6.00
2023-07-19T02:29:27.196Z,5.85
2023-07-19T02:31:54.466Z,6.30
2023-07-19T02:34:24.155Z,5.95
2023-07-19T02:39:18.556Z,5.07
2023-07-19T02:41:45.390Z,5.93
2023-07-19T02:44:12.181Z,5.88
2023-07-19T02:46:39.108Z,6.00
2023-07-19T02:49:06.065Z,5.60
2023-07-19T02:51:32.897Z,5.47
2023-07-19T02:54:02.156Z,5.30
2023-07-19T02:56:28.995Z,5.55
2023-07-19T02:58:55.831Z,6.03
2023-07-19T03:01:22.953Z,4.95
2023-07-19T03:03:50.655Z,5.18
2023-07-19T03:06:19.407Z,5.43
2023-07-19T03:08:46.262Z,5.43
2023-07-19T03:11:14.875Z,5.28
2023-07-19T03:13:41.816Z,5.38
2023-07-19T03:16:18.357Z,5.03
2023-07-19T03:19:04.992Z,4.90
2023-07-19T03:21:34.907Z,5.10
2023-07-19T03:24:10.440Z,4.80
2023-07-19T03:26:37.298Z,5.43
2023-07-19T03:29:04.162Z,5.30
2023-07-19T03:31:31.003Z,5.53
2023-07-19T03:33:58.237Z,5.43
2023-07-19T03:36:29.057Z,4.75
2023-07-19T03:39:07.352Z,4.65
2023-07-19T03:41:47.669Z,4.47
2023-07-19T03:47:38.314Z,5.50
2023-07-19T03:50:08.711Z,5.32
2023-07-19T03:52:38.611Z,4.97
2023-07-19T03:55:18.402Z,5.30
2023-07-19T03:57:49.722Z,4.90
2023-07-19T04:00:20.340Z,4.53
2023-07-19T04:02:55.803Z,4.72
2023-07-19T04:05:37.738Z,5.30
2023-07-19T04:14:27.530Z,4.80
2023-07-19T04:17:43.393Z,4.50
2023-07-19T04:20:49.025Z,4.90
2023-07-19T04:23:33.373Z,5.45
2023-07-19T04:26:16.812Z,4.80
2023-07-19T04:28:43.645Z,5.15
2023-07-19T04:31:10.410Z,4.80
2023-07-19T04:33:37.272Z,5.63
2023-07-19T04:36:17.114Z,5.40
2023-07-19T04:38:44.429Z,5.05
2023-07-19T04:41:11.312Z,5.20
2023-07-19T04:43:38.149Z,4.80
2023-07-19T04:46:05.046Z,5.25
2023-07-19T04:48:31.953Z,5.20
2023-07-19T04:50:59.908Z,5.05
2023-07-19T04:53:27.297Z,5.32
2023-07-19T04:55:55.309Z,4.82
2023-07-19T04:58:22.113Z,4.95
2023-07-19T05:00:48.838Z,5.00
2023-07-19T05:03:15.617Z,4.97
2023-07-19T05:05:42.431Z,4.80
2023-07-19T05:08:09.463Z,5.28
2023-07-19T05:10:37.903Z,5.00
2023-07-19T05:13:05.779Z,5.10
2023-07-19T05:15:33.597Z,4.82
2023-07-19T05:18:02.232Z,4.93
2023-07-19T05:20:32.838Z,4.30
2023-07-19T05:23:00.245Z,4.70
2023-07-19T05:25:27.062Z,4.80
2023-07-19T05:27:53.850Z,4.60
2023-07-19T05:30:20.626Z,4.05
2023-07-19T05:32:47.366Z,5.47
2023-07-19T05:35:14.217Z,4.57
2023-07-19T05:37:41.396Z,4.68
2023-07-19T05:40:09.371Z,4.20
2023-07-19T05:42:36.304Z,4.38
2023-07-19T05:45:03.546Z,4.38
2023-07-19T05:47:31.303Z,4.75
2023-07-19T05:49:59.213Z,3.88
2023-07-19T05:52:28.569Z,4.10
2023-07-19T05:54:55.587Z,4.10
2023-07-19T05:57:22.453Z,4.22
2023-07-19T05:59:49.339Z,4.10
2023-07-19T06:02:16.214Z,4.10
2023-07-19T06:04:44.130Z,4.03
2023-07-19T06:07:11.062Z,3.97
2023-07-19T06:09:37.874Z,3.65
2023-07-19T06:12:05.211Z,4.63
2023-07-19T06:14:32.002Z,3.95
2023-07-19T06:16:58.747Z,4.30
2023-07-19T06:19:25.532Z,3.85
2023-07-19T06:21:52.564Z,3.78
2023-07-19T06:24:19.408Z,3.60
2023-07-19T06:26:46.176Z,3.63
2023-07-19T06:29:12.916Z,3.58
2023-07-19T06:31:39.766Z,4.22
2023-07-19T06:34:07.542Z,3.42
2023-07-19T06:36:34.715Z,3.95
2023-07-19T06:39:01.641Z,3.38
2023-07-19T06:41:28.769Z,3.42
2023-07-19T06:43:55.786Z,3.33
2023-07-19T06:46:22.661Z,3.85
2023-07-19T06:48:49.546Z,3.47
2023-07-19T06:51:16.456Z,4.50
2023-07-19T06:53:45.261Z,3.83
2023-07-19T06:56:12.140Z,3.60
2023-07-19T06:58:38.936Z,3.75
2023-07-19T07:01:05.688Z,4.05
2023-07-19T07:03:33.403Z,3.67
2023-07-19T07:06:03.940Z,3.55
2023-07-19T07:08:31.337Z,4.00
2023-07-19T07:11:01.094Z,4.00
2023-07-19T07:13:27.896Z,3.90
2023-07-19T07:15:54.857Z,3.90
2023-07-19T07:18:21.644Z,3.70
2023-07-19T07:20:48.433Z,4.18
2023-07-19T07:23:15.264Z,3.80
2023-07-19T07:25:42.092Z,4.43
2023-07-19T07:28:09.587Z,4.47
2023-07-19T07:30:37.590Z,4.35
2023-07-19T07:33:08.212Z,4.28
2023-07-19T07:35:35.076Z,3.90
2023-07-19T07:38:01.837Z,4.15
2023-07-19T07:40:28.911Z,3.75
2023-07-19T07:42:55.757Z,3.90
2023-07-19T07:45:22.590Z,3.55
2023-07-19T07:47:49.435Z,3.50
2023-07-19T07:50:19.433Z,4.00
2023-07-19T07:52:55.240Z,3.47
2023-07-19T07:55:29.774Z,3.72
2023-07-19T07:57:56.496Z,3.92
2023-07-19T08:00:23.302Z,3.60
2023-07-19T08:02:50.236Z,3.58
2023-07-19T08:05:17.221Z,3.63
2023-07-19T08:07:43.965Z,3.45
2023-07-19T08:10:10.808Z,3.53
2023-07-19T08:12:37.611Z,4.15
2023-07-19T08:15:05.174Z,4.50
2023-07-19T08:17:31.959Z,3.92
2023-07-19T08:19:58.727Z,3.28
2023-07-19T08:22:29.215Z,3.58
2023-07-19T08:24:56.166Z,4.32
2023-07-19T08:27:23.082Z,3.85
2023-07-19T08:29:49.888Z,3.65
2023-07-19T08:32:16.639Z,3.50
2023-07-19T08:34:43.758Z,3.40
2023-07-19T08:37:27.461Z,3.70
2023-07-19T08:39:54.224Z,3.92
2023-07-19T08:42:21.185Z,3.63
2023-07-19T08:44:49.876Z,3.55
2023-07-19T08:47:18.245Z,3.65
2023-07-19T08:49:45.216Z,3.53
2023-07-19T08:52:14.065Z,3.92
2023-07-19T08:54:40.888Z,3.53
2023-07-19T08:57:07.675Z,3.55
2023-07-19T08:59:35.780Z,3.67
2023-07-19T09:02:03.771Z,3.70
2023-07-19T09:04:33.614Z,3.85
2023-07-19T09:07:04.400Z,3.72
2023-07-19T09:09:31.685Z,3.70
2023-07-19T09:11:58.551Z,3.42
2023-07-19T09:14:37.045Z,3.53
2023-07-19T09:17:04.188Z,3.08
2023-07-19T09:19:31.025Z,3.63
2023-07-19T09:21:58.716Z,3.28
2023-07-19T09:24:25.933Z,3.70
2023-07-19T09:26:54.171Z,3.63
2023-07-19T09:29:22.096Z,3.50
2023-07-19T09:31:57.407Z,3.58
2023-07-19T09:34:27.172Z,3.58
2023-07-19T09:36:54.511Z,3.47
2023-07-19T09:39:22.434Z,3.17
2023-07-19T09:41:49.369Z,3.63
2023-07-19T09:44:17.978Z,3.83
2023-07-19T09:46:46.108Z,3.65
2023-07-19T09:49:14.917Z,3.60
2023-07-19T09:51:43.090Z,3.45
2023-07-19T09:54:14.488Z,3.45
2023-07-19T09:56:43.926Z,3.45
2023-07-19T09:59:18.874Z,2.88
2023-07-19T10:01:46.155Z,3.47
2023-07-19T10:04:27.410Z,3.92
2023-07-19T10:07:11.384Z,3.83
2023-07-19T10:09:43.989Z,2.85
2023-07-19T10:12:27.271Z,4.00
2023-07-19T10:14:54.321Z,3.90
2023-07-19T10:17:22.072Z,3.60
2023-07-19T10:20:09.079Z,3.80
2023-07-19T10:22:55.018Z,3.72
2023-07-19T10:25:35.834Z,3.80
2023-07-19T10:28:11.280Z,4.03
2023-07-19T10:31:27.647Z,3.85
2023-07-19T10:33:56.987Z,3.35
2023-07-19T10:36:24.499Z,3.25
2023-07-19T10:38:51.690Z,3.00
2023-07-19T10:41:20.753Z,3.10
2023-07-19T10:43:51.620Z,3.50
2023-07-19T10:46:33.126Z,3.47
2023-07-19T10:49:00.178Z,3.28
2023-07-19T10:51:27.044Z,3.40
2023-07-19T10:54:00.670Z,3.35
2023-07-19T10:56:29.325Z,3.05
2023-07-19T10:59:00.691Z,4.15
2023-07-19T11:01:31.788Z,2.80
2023-07-19T11:04:06.396Z,2.90
2023-07-19T11:06:34.852Z,3.05
2023-07-19T11:09:09.233Z,3.15
2023-07-19T11:11:38.721Z,3.20
2023-07-19T11:14:06.535Z,2.80
2023-07-19T11:16:33.478Z,3.30
2023-07-19T11:19:00.392Z,3.08
2023-07-19T11:21:28.942Z,2.83
2023-07-19T11:23:56.318Z,3.10
2023-07-19T11:26:23.170Z,3.35
2023-07-19T11:28:54.249Z,3.10
2023-07-19T11:31:39.690Z,3.28
2023-07-19T11:34:12.401Z,3.20
2023-07-19T11:36:44.478Z,3.88
2023-07-19T11:39:18.709Z,3.28
2023-07-19T11:41:47.040Z,3.25
2023-07-19T11:44:24.009Z,3.20
2023-07-19T11:46:51.200Z,3.30
2023-07-19T11:49:19.585Z,3.10
2023-07-19T11:51:47.462Z,3.15
2023-07-19T11:54:16.569Z,3.67
2023-07-19T11:56:43.537Z,3.60
2023-07-19T11:59:11.088Z,3.25
2023-07-19T12:01:38.003Z,3.53
2023-07-19T12:04:05.171Z,3.05
2023-07-19T12:06:32.705Z,2.53
2023-07-19T12:09:00.019Z,3.17
2023-07-19T12:11:27.289Z,3.20
2023-07-19T12:13:54.118Z,3.20
2023-07-19T12:16:21.550Z,2.70
2023-07-19T12:18:48.607Z,3.00
2023-07-19T12:21:15.456Z,2.83
2023-07-19T12:23:57.604Z,3.22
2023-07-19T12:28:56.230Z,3.35
2023-07-19T12:31:23.314Z,2.92
2023-07-19T12:33:50.955Z,3.50
2023-07-19T12:36:18.630Z,3.03
2023-07-19T12:38:46.642Z,3.10
2023-07-19T12:41:13.507Z,3.10
2023-07-19T12:43:40.300Z,3.05
2023-07-19T12:46:07.230Z,3.15
2023-07-19T12:48:34.122Z,3.03
2023-07-19T12:51:00.956Z,3.30
2023-07-19T12:53:29.281Z,2.92
2023-07-19T12:55:56.094Z,3.03
2023-07-19T12:58:23.727Z,3.00
2023-07-19T13:00:50.632Z,2.80
2023-07-19T13:03:17.649Z,3.10
2023-07-19T13:05:45.389Z,2.92
2023-07-19T13:08:12.157Z,3.15
2023-07-19T13:10:38.959Z,3.10
2023-07-19T13:13:05.746Z,3.30
2023-07-19T13:15:32.753Z,3.08
2023-07-19T13:18:00.274Z,3.20
2023-07-19T13:20:27.158Z,3.53
2023-07-19T13:22:54.063Z,3.53
2023-07-19T13:25:21.070Z,3.42
2023-07-19T13:27:47.800Z,3.17
2023-07-19T13:30:14.661Z,3.00
2023-07-19T13:32:41.723Z,3.08
2023-07-19T13:40:10.206Z,3.00
2023-07-19T13:42:39.292Z,3.10
2023-07-19T13:45:06.799Z,3.33
2023-07-19T13:47:33.707Z,3.28
2023-07-19T13:50:00.524Z,3.20
2023-07-19T13:52:28.161Z,3.47
2023-07-19T13:54:54.910Z,3.20
2023-07-19T13:57:21.763Z,3.53
2023-07-19T13:59:48.492Z,3.25
2023-07-19T14:02:15.946Z,3.03
2023-07-19T14:04:43.097Z,2.80
2023-07-19T14:07:10.038Z,3.00
2023-07-19T14:09:38.074Z,3.22
2023-07-19T14:12:05.188Z,3.67
2023-07-19T14:14:45.185Z,3.10
2023-07-19T14:17:12.707Z,3.55
2023-07-19T14:19:39.984Z,3.20
2023-07-19T14:22:07.211Z,3.35
2023-07-19T14:24:34.004Z,3.28
2023-07-19T14:27:01.015Z,3.20
2023-07-19T14:29:29.404Z,3.10
2023-07-19T14:31:56.601Z,3.10
2023-07-19T14:34:26.737Z,3.20
2023-07-19T14:36:53.999Z,3.75
2023-07-19T14:39:21.525Z,3.30
2023-07-19T14:41:54.845Z,3.17
2023-07-19T14:44:24.196Z,3.17
2023-07-19T14:46:51.013Z,3.13
2023-07-19T14:49:18.477Z,3.47
2023-07-19T14:51:46.355Z,3.35
2023-07-19T14:54:13.558Z,3.73
2023-07-19T14:56:40.504Z,2.97
2023-07-19T14:59:08.385Z,3.50
2023-07-19T15:01:35.902Z,3.30
2023-07-19T15:04:03.200Z,2.92
2023-07-19T15:08:58.627Z,3.22
2023-07-19T15:11:25.656Z,3.27
2023-07-19T15:13:52.648Z,3.22
2023-07-19T15:16:19.765Z,3.42
2023-07-19T15:18:47.440Z,3.20
2023-07-19T15:21:14.797Z,3.50
2023-07-19T15:23:49.838Z,3.60
2023-07-19T15:26:28.563Z,3.22
2023-07-19T15:29:00.735Z,3.90
2023-07-19T15:31:27.934Z,3.80
2023-07-19T15:33:57.274Z,3.17
2023-07-19T15:36:24.485Z,3.45
2023-07-19T15:38:55.869Z,3.55
2023-07-19T15:41:23.974Z,3.47
2023-07-19T15:43:51.238Z,3.50
2023-07-19T15:46:18.097Z,3.65
2023-07-19T15:48:45.039Z,4.07
2023-07-19T15:51:14.696Z,3.33
2023-07-19T15:53:41.782Z,3.38
2023-07-19T15:56:09.675Z,3.65
2023-07-19T15:58:36.938Z,3.70
2023-07-19T16:01:08.569Z,3.72
2023-07-19T16:03:36.380Z,3.45
2023-07-19T16:06:04.510Z,3.70
2023-07-19T16:08:31.595Z,3.57
2023-07-19T16:10:58.822Z,3.38
2023-07-19T16:13:25.661Z,3.60
2023-07-19T16:15:52.417Z,3.03
2023-07-19T16:18:19.499Z,3.20
2023-07-19T16:20:47.059Z,3.30
2023-07-19T16:23:15.092Z,3.10
2023-07-19T16:25:41.969Z,3.43
2023-07-19T16:28:08.760Z,3.42
2023-07-19T16:30:35.594Z,3.45
2023-07-19T16:33:02.611Z,3.10
2023-07-19T16:35:29.859Z,3.15
2023-07-19T16:37:56.717Z,3.20
2023-07-19T16:40:23.831Z,3.40
2023-07-19T16:42:50.786Z,3.20
2023-07-19T16:45:17.537Z,3.40
2023-07-19T16:47:44.384Z,2.92
2023-07-19T16:50:12.570Z,3.17
2023-07-19T16:52:41.629Z,3.45
2023-07-19T16:55:10.801Z,3.38
2023-07-19T16:57:38.829Z,2.72
2023-07-19T17:00:17.412Z,2.80
2023-07-19T17:02:44.871Z,3.38
2023-07-19T17:05:12.519Z,3.20
2023-07-19T17:07:39.725Z,2.85
2023-07-19T17:10:07.038Z,3.17
2023-07-19T17:12:33.893Z,3.05
2023-07-19T17:15:00.726Z,2.97
2023-07-19T17:17:28.935Z,2.65
2023-07-19T17:19:55.929Z,3.03
2023-07-19T17:22:23.401Z,3.38
2023-07-19T17:24:50.339Z,3.00
2023-07-19T17:27:17.328Z,2.88
2023-07-19T17:29:44.422Z,2.72
2023-07-19T17:32:11.453Z,3.40
2023-07-19T17:34:38.726Z,2.85
2023-07-19T17:37:07.047Z,2.80
2023-07-19T17:39:34.126Z,2.80
2023-07-19T17:42:01.168Z,3.00
2023-07-19T17:44:28.454Z,3.00
2023-07-19T17:46:55.748Z,3.13
2023-07-19T17:49:23.978Z,2.88
2023-07-19T17:51:51.436Z,2.40
2023-07-19T17:54:18.685Z,2.80
2023-07-19T17:56:46.128Z,3.20
2023-07-19T17:59:12.980Z,3.05
2023-07-19T18:01:39.974Z,2.55
2023-07-19T18:04:07.255Z,2.80
2023-07-19T18:06:34.415Z,2.88
2023-07-19T18:09:01.996Z,2.88
2023-07-19T18:11:29.388Z,3.08
2023-07-19T18:13:56.733Z,2.90
2023-07-19T18:16:24.223Z,3.00
2023-07-19T18:18:51.232Z,2.88
2023-07-19T18:21:18.633Z,2.88
2023-07-19T18:23:45.957Z,2.78
2023-07-19T18:26:12.819Z,2.92
2023-07-19T18:28:39.779Z,2.97
2023-07-19T18:31:06.900Z,3.40
2023-07-19T18:33:33.896Z,2.72
2023-07-19T18:36:00.851Z,3.35
2023-07-19T18:38:27.799Z,3.08
2023-07-19T18:40:55.542Z,2.85
2023-07-19T18:43:22.652Z,3.40
2023-07-19T18:45:50.013Z,3.30
2023-07-19T18:48:18.547Z,2.83
2023-07-19T18:50:45.685Z,3.42
2023-07-19T18:53:12.931Z,3.13
2023-07-19T18:55:40.363Z,3.08
2023-07-19T18:58:07.424Z,2.97
2023-07-19T19:00:34.975Z,2.70
2023-07-19T19:03:02.789Z,2.83
2023-07-19T19:05:30.098Z,2.75
2023-07-19T19:07:57.422Z,2.85
2023-07-19T19:10:24.917Z,3.00
2023-07-19T19:12:52.013Z,2.83
2023-07-19T19:15:21.749Z,2.88
2023-07-19T19:17:48.947Z,2.88
2023-07-19T19:20:16.417Z,3.42
2023-07-19T19:22:43.949Z,2.80
2023-07-19T19:25:11.377Z,2.95
2023-07-19T19:27:39.642Z,2.97
2023-07-19T19:30:08.961Z,3.35
2023-07-19T19:32:37.424Z,2.90
2023-07-19T19:35:04.842Z,2.88
2023-07-19T19:37:33.036Z,3.40
2023-07-19T19:40:00.293Z,3.33
2023-07-19T19:42:30.326Z,3.00
2023-07-19T19:44:59.069Z,3.90
2023-07-19T19:47:27.535Z,3.60
2023-07-19T19:49:55.048Z,3.80
2023-07-19T19:52:23.785Z,3.22
2023-07-19T19:54:50.654Z,4.80
2023-07-19T19:57:18.407Z,5.30
2023-07-19T19:59:49.009Z,4.50
2023-07-19T20:04:47.480Z,4.00
2023-07-19T20:07:14.646Z,3.88
2023-07-19T20:09:55.697Z,3.92
2023-07-19T20:12:29.569Z,3.80
2023-07-19T20:14:57.194Z,3.75
2023-07-19T20:17:24.242Z,3.65
2023-07-19T20:19:54.127Z,3.50
2023-07-19T20:22:21.178Z,3.47
2023-07-19T20:24:57.889Z,3.80
2023-07-19T20:30:10.296Z,3.53
2023-07-19T20:35:08.523Z,3.55
2023-07-19T20:37:38.020Z,3.63
2023-07-19T20:41:34.308Z,4.05
2023-07-19T20:42:57.376Z,3.38
2023-07-19T20:45:28.817Z,4.35
2023-07-19T20:48:01.797Z,3.97
2023-07-19T20:50:30.383Z,3.65
2023-07-19T20:52:57.937Z,3.45
2023-07-19T20:55:24.987Z,4.22
2023-07-19T20:57:51.896Z,4.43
2023-07-19T21:00:19.779Z,3.85
2023-07-19T21:02:46.679Z,3.70
2023-07-19T21:05:13.504Z,3.55
2023-07-19T21:07:40.334Z,4.05
2023-07-19T21:10:07.528Z,3.42
2023-07-19T21:12:34.649Z,3.92
2023-07-19T21:15:01.416Z,4.15
2023-07-19T21:17:28.350Z,4.32
2023-07-19T21:19:55.065Z,3.63
2023-07-19T21:22:21.971Z,3.65
2023-07-19T21:25:14.490Z,4.43
2023-07-19T21:27:35.516Z,3.80
2023-07-19T21:30:02.259Z,4.03
2023-07-19T21:32:29.803Z,4.22
2023-07-19T21:34:57.032Z,3.97
2023-07-19T21:37:23.747Z,4.18
2023-07-19T21:39:50.530Z,3.78
2023-07-19T21:42:17.334Z,3.88
2023-07-19T21:44:44.260Z,4.40
2023-07-19T21:47:11.140Z,4.57
2023-07-19T21:49:37.960Z,4.28
2023-07-19T21:52:05.895Z,4.20
2023-07-19T21:54:32.646Z,4.18
2023-07-19T21:56:59.521Z,4.35
2023-07-19T21:59:26.652Z,4.13
2023-07-19T22:01:53.438Z,3.80
2023-07-19T22:04:20.275Z,4.25
2023-07-19T22:06:47.163Z,3.42
2023-07-19T22:09:15.254Z,3.60
2023-07-19T22:11:42.434Z,3.95
2023-07-19T22:14:10.499Z,3.97
2023-07-19T22:16:39.420Z,4.13
2023-07-19T22:19:06.434Z,4.50
2023-07-19T22:21:33.272Z,4.25
2023-07-19T22:24:00.001Z,4.60
2023-07-19T22:26:26.818Z,4.28
2023-07-19T22:29:04.782Z,4.05
2023-07-19T22:31:32.577Z,4.00
2023-07-19T22:33:59.326Z,4.05
2023-07-19T22:36:27.538Z,4.25
2023-07-19T22:38:57.245Z,5.45
2023-07-19T22:41:24.264Z,4.55
2023-07-19T22:43:53.448Z,4.28
2023-07-19T22:46:21.011Z,3.88
2023-07-19T22:48:51.126Z,3.88
2023-07-19T22:51:18.572Z,4.32
2023-07-19T22:53:47.188Z,3.78
2023-07-19T22:56:15.119Z,4.15
2023-07-19T22:58:42.124Z,4.18
2023-07-19T23:03:43.221Z,4.20
2023-07-19T23:06:11.707Z,4.60
2023-07-19T23:08:40.184Z,4.25
2023-07-19T23:11:06.999Z,4.38
2023-07-19T23:13:33.896Z,4.30
2023-07-19T23:16:00.731Z,3.95
2023-07-19T23:18:27.501Z,4.35
2023-07-19T23:20:54.343Z,4.10
2023-07-19T23:23:21.714Z,4.32
2023-07-19T23:25:51.099Z,4.13
2023-07-19T23:28:19.012Z,4.35
2023-07-19T23:30:46.050Z,3.97
2023-07-19T23:33:13.049Z,3.80
2023-07-19T23:35:40.003Z,4.45
2023-07-19T23:38:06.793Z,4.25
2023-07-19T23:40:33.627Z,3.88
2023-07-19T23:43:00.386Z,4.20
2023-07-19T23:45:27.169Z,4.43
2023-07-19T23:47:55.455Z,4.35
2023-07-19T23:50:22.344Z,4.30
2023-07-19T23:52:49.118Z,4.07
2023-07-19T23:55:15.925Z,4.30
2023-07-19T23:57:42.670Z,4.40
